createdAt,value
2019-04-28T00:01:45.479Z,5.80
2019-04-28T00:04:15.077Z,5.80
2019-04-28T00:06:44.763Z,5.70
2019-04-28T00:09:15.956Z,5.70
2019-04-28T00:11:45.643Z,5.70
2019-04-28T00:14:15.372Z,5.70
2019-04-28T00:16:44.941Z,5.70
2019-04-28T00:19:14.603Z,5.70
2019-04-28T00:21:45.888Z,5.60
2019-04-28T00:24:17.110Z,5.60
2019-04-28T00:26:49.600Z,5.60
2019-04-28T00:29:22.274Z,5.60
2019-04-28T00:31:51.946Z,5.40
2019-04-28T00:34:21.523Z,5.30
2019-04-28T00:36:52.902Z,5.10
2019-04-28T00:39:22.692Z,5.00
2019-04-28T00:41:52.369Z,4.90
2019-04-28T00:44:23.100Z,4.80
2019-04-28T00:46:52.727Z,4.70
2019-04-28T00:49:24.027Z,4.60
2019-04-28T00:51:53.666Z,4.50
2019-04-28T00:54:23.322Z,4.50
2019-04-28T00:56:52.909Z,4.40
2019-04-28T00:59:22.562Z,4.40
2019-04-28T01:01:53.749Z,4.30
2019-04-28T01:04:23.496Z,4.30
2019-04-28T01:06:53.265Z,4.30
2019-04-28T01:09:23.052Z,4.20
2019-04-28T01:11:53.486Z,4.20
2019-04-28T01:14:23.416Z,4.20
2019-04-28T01:16:54.678Z,4.20
2019-04-28T01:19:25.895Z,4.20
2019-04-28T01:21:57.127Z,4.20
2019-04-28T01:24:26.772Z,4.20
2019-04-28T01:26:56.876Z,4.20
2019-04-28T01:29:29.765Z,4.20
2019-04-28T01:32:01.005Z,4.20
2019-04-28T01:34:30.642Z,4.10
2019-04-28T01:37:00.360Z,4.10
2019-04-28T01:39:30.032Z,4.10
2019-04-28T01:41:59.713Z,4.10
2019-04-28T01:44:29.819Z,4.10
2019-04-28T01:47:01.146Z,4.10
2019-04-28T01:49:30.724Z,4.10
2019-04-28T01:52:01.255Z,4.10
2019-04-28T01:54:31.142Z,4.10
2019-04-28T01:57:01.654Z,4.10
2019-04-28T01:59:31.392Z,4.10
2019-04-28T02:02:01.084Z,4.10
2019-04-28T02:04:32.586Z,4.10
2019-04-28T02:07:01.968Z,4.10
2019-04-28T02:09:31.587Z,4.20
2019-04-28T02:12:01.268Z,4.20
2019-04-28T02:14:32.225Z,4.20
2019-04-28T02:17:01.870Z,4.20
2019-04-28T02:19:33.060Z,4.20
2019-04-28T02:22:05.563Z,4.20
2019-04-28T02:24:36.695Z,4.30
2019-04-28T02:27:06.754Z,4.30
2019-04-28T02:29:36.372Z,4.30
2019-04-28T02:32:10.299Z,4.30
2019-04-28T02:34:41.158Z,4.30
2019-04-28T02:37:11.225Z,4.30
2019-04-28T02:39:41.451Z,4.30
2019-04-28T02:42:11.405Z,4.30
2019-04-28T02:44:41.070Z,4.30
2019-04-28T02:47:11.253Z,4.30
2019-04-28T02:49:43.573Z,4.30
2019-04-28T02:52:13.994Z,4.30
2019-04-28T02:54:43.586Z,4.30
2019-04-28T02:57:13.168Z,4.30
2019-04-28T02:59:44.619Z,4.30
2019-04-28T03:02:14.276Z,4.30
2019-04-28T03:04:45.074Z,4.30
2019-04-28T03:07:14.850Z,4.30
2019-04-28T03:09:44.534Z,4.30
2019-04-28T03:12:14.128Z,4.30
2019-04-28T03:14:45.099Z,4.30
2019-04-28T03:17:14.779Z,4.30
2019-04-28T03:19:44.494Z,4.30
2019-04-28T03:22:14.199Z,4.30
2019-04-28T03:24:45.373Z,4.30
2019-04-28T03:27:16.650Z,4.30
2019-04-28T03:29:52.275Z,4.30
2019-04-28T03:32:37.257Z,4.30
2019-04-28T03:34:53.678Z,4.30
2019-04-28T03:37:24.142Z,4.30
2019-04-28T03:39:54.240Z,4.30
2019-04-28T03:42:24.140Z,4.30
2019-04-28T03:44:55.208Z,4.30
2019-04-28T03:47:25.932Z,4.30
2019-04-28T03:49:55.556Z,4.30
2019-04-28T03:52:25.194Z,4.30
2019-04-28T03:54:54.774Z,4.30
2019-04-28T03:57:24.449Z,4.20
2019-04-28T03:59:54.082Z,4.20
2019-04-28T04:02:26.390Z,4.20
2019-04-28T04:04:56.045Z,4.20
2019-04-28T04:07:25.673Z,4.20
2019-04-28T04:10:06.360Z,4.20
2019-04-28T04:12:41.236Z,4.20
2019-04-28T04:15:11.850Z,4.10
2019-04-28T04:17:43.044Z,4.10
2019-04-28T04:20:15.695Z,4.10
2019-04-28T04:22:45.335Z,4.10
2019-04-28T04:25:14.928Z,4.10
2019-04-28T04:27:44.560Z,4.10
2019-04-28T04:30:14.237Z,4.00
2019-04-28T04:32:43.954Z,4.00
2019-04-28T04:35:13.582Z,4.00
2019-04-28T04:37:43.170Z,4.00
2019-04-28T04:40:13.364Z,4.00
2019-04-28T04:42:43.300Z,4.00
2019-04-28T04:45:12.900Z,4.10
2019-04-28T04:47:42.478Z,4.10
2019-04-28T04:50:13.194Z,4.00
2019-04-28T04:52:44.257Z,4.10
2019-04-28T04:55:13.961Z,4.00
2019-04-28T04:57:43.596Z,4.10
2019-04-28T05:00:15.228Z,4.10
2019-04-28T05:02:52.043Z,4.10
2019-04-28T05:05:20.307Z,4.10
2019-04-28T05:07:50.733Z,4.10
2019-04-28T05:10:20.469Z,4.10
2019-04-28T05:12:51.766Z,4.10
2019-04-28T05:15:21.557Z,4.10
2019-04-28T05:17:51.248Z,4.10
2019-04-28T05:20:20.873Z,4.20
2019-04-28T05:22:52.076Z,4.20
2019-04-28T05:25:24.662Z,4.20
2019-04-28T05:27:59.335Z,4.30
2019-04-28T05:30:26.850Z,4.30
2019-04-28T05:32:57.449Z,4.40
2019-04-28T05:35:27.275Z,4.40
2019-04-28T05:37:59.642Z,4.50
2019-04-28T05:40:29.646Z,4.60
2019-04-28T05:43:00.843Z,4.60
2019-04-28T05:45:32.305Z,4.60
2019-04-28T05:48:02.104Z,4.70
2019-04-28T05:50:33.551Z,4.80
2019-04-28T05:53:04.794Z,4.90
2019-04-28T05:55:36.011Z,4.90
2019-04-28T05:58:09.861Z,5.00
2019-04-28T06:00:41.766Z,5.10
2019-04-28T06:03:12.804Z,5.10
2019-04-28T06:05:42.473Z,5.10
2019-04-28T06:08:13.685Z,5.10
2019-04-28T06:10:43.273Z,5.10
2019-04-28T06:13:12.898Z,5.10
2019-04-28T06:15:42.528Z,5.10
2019-04-28T06:18:12.165Z,5.10
2019-04-28T06:20:41.733Z,5.10
2019-04-28T06:23:11.865Z,5.00
2019-04-28T06:25:41.491Z,5.10
2019-04-28T06:28:11.089Z,5.10
2019-04-28T06:30:40.806Z,5.20
2019-04-28T06:33:10.369Z,5.20
2019-04-28T06:35:39.992Z,5.30
2019-04-28T06:38:09.504Z,5.40
2019-04-28T06:40:41.408Z,5.40
2019-04-28T06:43:10.190Z,5.50
2019-04-28T06:45:39.781Z,5.60
2019-04-28T06:48:09.301Z,5.70
2019-04-28T06:50:40.044Z,5.80
2019-04-28T06:53:09.603Z,5.90
2019-04-28T06:55:39.193Z,6.00
2019-04-28T06:58:08.832Z,6.10
2019-04-28T07:00:38.445Z,6.30
2019-04-28T07:03:12.983Z,6.50
2019-04-28T07:05:39.274Z,6.90
2019-04-28T07:08:08.932Z,7.30
2019-04-28T07:10:38.575Z,7.80
2019-04-28T07:13:08.266Z,8.40
2019-04-28T07:15:38.524Z,8.80
2019-04-28T07:18:08.959Z,9.20
2019-04-28T07:20:40.303Z,9.60
2019-04-28T07:23:11.885Z,9.70
2019-04-28T07:25:41.476Z,9.80
2019-04-28T07:28:14.778Z,9.80
2019-04-28T07:30:44.443Z,9.70
2019-04-28T07:33:13.896Z,9.50
2019-04-28T07:35:43.487Z,9.30
2019-04-28T07:38:13.070Z,9.20
2019-04-28T07:40:42.744Z,9.00
2019-04-28T07:43:12.355Z,8.80
2019-04-28T07:45:41.961Z,8.80
2019-04-28T07:48:11.573Z,8.70
2019-04-28T07:50:41.129Z,8.80
2019-04-28T07:53:13.621Z,9.00
2019-04-28T07:55:43.250Z,9.10
2019-04-28T07:58:12.939Z,9.10
2019-04-28T08:00:44.255Z,9.00
2019-04-28T08:03:15.541Z,8.80
2019-04-28T08:05:45.137Z,8.60
2019-04-28T08:08:14.826Z,8.40
2019-04-28T08:10:44.391Z,8.40
2019-04-28T08:13:13.917Z,8.60
2019-04-28T08:15:44.089Z,8.80
2019-04-28T08:18:13.676Z,9.10
2019-04-28T08:20:43.310Z,9.30
2019-04-28T08:23:13.108Z,9.50
2019-04-28T08:25:42.794Z,9.50
2019-04-28T08:28:12.373Z,9.50
2019-04-28T08:30:41.949Z,9.60
2019-04-28T08:33:13.207Z,9.50
2019-04-28T08:35:42.813Z,9.30
2019-04-28T08:38:12.475Z,9.20
2019-04-28T08:40:42.088Z,9.20
2019-04-28T08:43:11.559Z,9.20
2019-04-28T08:45:42.289Z,9.30
2019-04-28T08:48:11.747Z,9.30
2019-04-28T08:50:41.325Z,9.20
2019-04-28T08:53:13.882Z,9.30
2019-04-28T08:55:42.228Z,9.30
2019-04-28T08:58:11.897Z,9.40
2019-04-28T09:00:41.571Z,9.40
2019-04-28T09:03:11.187Z,9.50
2019-04-28T09:05:41.787Z,9.60
2019-04-28T09:08:11.570Z,9.70
2019-04-28T09:10:41.077Z,9.80
2019-04-28T09:13:11.707Z,9.90
2019-04-28T09:15:41.362Z,9.90
2019-04-28T09:18:11.003Z,9.90
2019-04-28T09:20:40.685Z,9.90
2019-04-28T09:23:10.300Z,9.90
2019-04-28T09:25:39.871Z,10.20
2019-04-28T09:28:09.489Z,10.30
2019-04-28T09:30:39.250Z,10.40
2019-04-28T09:33:08.805Z,10.40
2019-04-28T09:35:38.884Z,10.40
2019-04-28T09:38:08.467Z,10.30
2019-04-28T09:40:38.031Z,10.20
2019-04-28T09:43:09.267Z,9.90
2019-04-28T09:45:40.486Z,9.80
2019-04-28T09:48:10.167Z,9.50
2019-04-28T09:50:39.747Z,9.40
2019-04-28T09:53:09.406Z,9.30
2019-04-28T09:55:39.106Z,9.20
2019-04-28T09:58:08.730Z,9.20
2019-04-28T10:00:39.848Z,9.20
2019-04-28T10:03:12.613Z,9.30
2019-04-28T10:05:42.196Z,9.40
2019-04-28T10:08:11.815Z,9.60
2019-04-28T10:10:42.817Z,9.70
2019-04-28T10:13:12.406Z,9.70
2019-04-28T10:15:41.868Z,9.80
2019-04-28T10:18:12.014Z,9.80
2019-04-28T10:20:43.790Z,9.80
2019-04-28T10:23:13.490Z,10.00
2019-04-28T10:25:43.280Z,10.20
2019-04-28T10:28:12.849Z,10.30
2019-04-28T10:30:42.498Z,10.50
2019-04-28T10:33:12.139Z,10.50
2019-04-28T10:35:41.884Z,10.50
2019-04-28T10:38:11.522Z,10.40
2019-04-28T10:40:43.286Z,10.40
2019-04-28T10:43:12.938Z,10.30
2019-04-28T10:45:44.187Z,10.20
2019-04-28T10:48:14.138Z,10.20
2019-04-28T10:50:43.687Z,10.30
2019-04-28T10:53:13.690Z,10.30
2019-04-28T10:55:43.327Z,10.30
2019-04-28T10:58:12.870Z,10.20
2019-04-28T11:00:43.239Z,10.00
2019-04-28T11:03:12.830Z,9.90
2019-04-28T11:05:44.053Z,9.80
2019-04-28T11:08:15.920Z,9.80
2019-04-28T11:10:44.759Z,9.80
2019-04-28T11:13:14.383Z,9.80
2019-04-28T11:15:43.975Z,9.70
2019-04-28T11:18:14.913Z,9.70
2019-04-28T11:20:44.563Z,9.70
2019-04-28T11:23:14.203Z,9.70
2019-04-28T11:25:43.811Z,9.80
2019-04-28T11:28:13.684Z,9.90
2019-04-28T11:30:43.252Z,9.90
2019-04-28T11:33:14.576Z,10.00
2019-04-28T11:35:46.006Z,10.00
2019-04-28T11:38:15.595Z,10.00
2019-04-28T11:40:45.264Z,10.00
2019-04-28T11:43:14.845Z,9.90
2019-04-28T11:45:44.505Z,9.80
2019-04-28T11:48:13.999Z,9.70
2019-04-28T11:50:43.598Z,9.60
2019-04-28T11:53:13.158Z,9.60
2019-04-28T11:55:44.844Z,9.60
2019-04-28T11:58:14.450Z,9.50
2019-04-28T12:00:45.324Z,9.60
2019-04-28T12:03:15.073Z,9.60
2019-04-28T12:05:46.316Z,9.60
2019-04-28T12:08:15.971Z,9.60
2019-04-28T12:10:47.223Z,9.60
2019-04-28T12:13:18.476Z,9.60
2019-04-28T12:15:49.688Z,9.70
2019-04-28T12:18:20.961Z,9.70
2019-04-28T12:20:50.569Z,9.70
2019-04-28T12:23:20.204Z,9.70
2019-04-28T12:25:49.734Z,9.60
2019-04-28T12:28:19.390Z,9.60
2019-04-28T12:30:48.890Z,9.60
2019-04-28T12:33:19.498Z,9.70
2019-04-28T12:35:49.082Z,9.70
2019-04-28T12:38:18.640Z,9.80
2019-04-28T12:40:48.308Z,9.90
2019-04-28T12:43:17.887Z,10.00
2019-04-28T12:45:48.074Z,10.00
2019-04-28T12:48:17.728Z,10.00
2019-04-28T12:50:50.346Z,10.00
2019-04-28T12:53:23.604Z,9.90
2019-04-28T12:55:53.192Z,9.80
2019-04-28T12:58:22.701Z,9.80
2019-04-28T13:00:53.979Z,9.70
2019-04-28T13:03:25.245Z,9.70
2019-04-28T13:06:02.544Z,9.70
2019-04-28T13:08:28.893Z,9.70
2019-04-28T13:10:59.455Z,9.60
2019-04-28T13:13:29.144Z,9.60
2019-04-28T13:15:58.809Z,9.50
2019-04-28T13:18:28.360Z,9.50
2019-04-28T13:20:59.088Z,9.50
2019-04-28T13:23:28.835Z,9.50
2019-04-28T13:25:58.396Z,9.40
2019-04-28T13:28:27.958Z,9.40
2019-04-28T13:30:57.529Z,9.30
2019-04-28T13:33:27.147Z,9.30
2019-04-28T13:35:56.810Z,9.40
2019-04-28T13:38:26.319Z,9.50
2019-04-28T13:40:56.008Z,9.50
2019-04-28T13:43:25.581Z,9.60
2019-04-28T13:45:56.211Z,9.60
2019-04-28T13:48:25.941Z,9.70
2019-04-28T13:50:55.582Z,9.80
2019-04-28T13:53:25.214Z,10.00
2019-04-28T13:55:56.503Z,10.40
2019-04-28T13:58:27.836Z,10.70
2019-04-28T14:00:59.066Z,11.10
2019-04-28T14:03:30.323Z,11.40
2019-04-28T14:06:01.570Z,11.70
2019-04-28T14:08:31.204Z,11.90
2019-04-28T14:11:00.887Z,11.90
2019-04-28T14:13:30.409Z,11.80
2019-04-28T14:15:59.972Z,11.50
2019-04-28T14:18:29.631Z,11.30
2019-04-28T14:20:59.238Z,11.10
2019-04-28T14:23:30.028Z,11.10
2019-04-28T14:26:00.153Z,11.20
2019-04-28T14:28:29.787Z,11.30
2019-04-28T14:30:59.432Z,11.20
2019-04-28T14:33:32.142Z,11.10
2019-04-28T14:36:01.739Z,11.00
2019-04-28T14:38:31.277Z,10.90
2019-04-28T14:41:00.847Z,10.80
2019-04-28T14:43:30.504Z,10.60
2019-04-28T14:46:00.124Z,10.50
2019-04-28T14:48:29.733Z,10.40
2019-04-28T14:50:59.296Z,10.30
2019-04-28T14:53:29.096Z,10.20
2019-04-28T14:55:58.729Z,10.30
2019-04-28T14:58:28.368Z,10.20
2019-04-28T15:00:59.607Z,10.20
2019-04-28T15:03:31.001Z,10.20
2019-04-28T15:06:00.780Z,10.10
2019-04-28T15:08:32.690Z,10.10
2019-04-28T15:11:08.816Z,10.00
2019-04-28T15:13:39.790Z,10.00
2019-04-28T15:16:09.430Z,9.90
2019-04-28T15:18:39.188Z,9.80
2019-04-28T15:21:11.486Z,9.70
2019-04-28T15:23:41.072Z,9.50
2019-04-28T15:26:12.256Z,9.50
2019-04-28T15:28:41.823Z,9.40
2019-04-28T15:31:13.221Z,9.30
2019-04-28T15:33:43.138Z,9.20
2019-04-28T15:36:12.748Z,9.20
2019-04-28T15:38:42.407Z,9.30
2019-04-28T15:41:21.301Z,9.30
2019-04-28T15:43:43.272Z,9.50
2019-04-28T15:46:12.886Z,9.60
2019-04-28T15:48:42.687Z,9.80
2019-04-28T15:51:12.389Z,10.00
2019-04-28T15:53:43.661Z,10.20
2019-04-28T15:56:16.390Z,10.40
2019-04-28T15:58:47.317Z,10.60
2019-04-28T16:01:16.962Z,10.70
2019-04-28T16:03:46.611Z,10.80
2019-04-28T16:06:16.155Z,10.90
2019-04-28T16:08:45.804Z,11.00
2019-04-28T16:11:15.445Z,11.10
2019-04-28T16:13:45.104Z,11.30
2019-04-28T16:16:14.635Z,11.50
2019-04-28T16:18:44.277Z,11.60
2019-04-28T16:21:13.812Z,11.80
2019-04-28T16:23:43.458Z,11.80
2019-04-28T16:26:13.008Z,11.80
2019-04-28T16:28:42.603Z,11.80
2019-04-28T16:31:12.233Z,11.80
2019-04-28T16:33:41.986Z,11.70
2019-04-28T16:36:11.516Z,11.50
2019-04-28T16:38:41.195Z,11.30
2019-04-28T16:41:12.730Z,11.10
2019-04-28T16:43:44.356Z,10.90
2019-04-28T16:46:13.937Z,10.70
2019-04-28T16:48:43.571Z,10.60
2019-04-28T16:51:14.696Z,10.50
2019-04-28T16:53:44.326Z,10.60
2019-04-28T16:56:16.578Z,10.60
2019-04-28T16:58:47.802Z,10.50
2019-04-28T17:01:19.118Z,10.40
2019-04-28T17:03:48.721Z,10.30
2019-04-28T17:06:18.399Z,10.10
2019-04-28T17:08:47.982Z,10.00
2019-04-28T17:11:17.596Z,9.90
2019-04-28T17:13:47.263Z,9.70
2019-04-28T17:16:16.910Z,9.60
2019-04-28T17:18:46.542Z,9.60
2019-04-28T17:21:16.137Z,9.50
2019-04-28T17:23:45.770Z,9.40
2019-04-28T17:26:15.479Z,9.30
2019-04-28T17:28:45.011Z,9.30
2019-04-28T17:31:14.706Z,9.30
2019-04-28T17:33:44.205Z,9.30
2019-04-28T17:36:13.878Z,9.30
2019-04-28T17:38:43.468Z,9.30
2019-04-28T17:41:13.221Z,9.30
2019-04-28T17:43:42.944Z,9.30
2019-04-28T17:46:12.533Z,9.30
2019-04-28T17:48:45.092Z,9.30
2019-04-28T17:51:15.292Z,9.20
2019-04-28T17:53:44.840Z,9.10
2019-04-28T17:56:14.528Z,9.00
2019-04-28T17:58:45.959Z,8.90
2019-04-28T18:01:16.944Z,8.80
2019-04-28T18:03:51.420Z,8.70
2019-04-28T18:06:24.547Z,8.60
2019-04-28T18:08:54.161Z,8.50
2019-04-28T18:11:23.781Z,8.40
2019-04-28T18:13:53.465Z,8.40
2019-04-28T18:16:24.718Z,8.30
2019-04-28T18:18:55.796Z,8.20
2019-04-28T18:21:25.619Z,8.20
2019-04-28T18:23:56.883Z,8.10
2019-04-28T18:26:26.518Z,8.00
2019-04-28T18:28:56.174Z,7.90
2019-04-28T18:31:25.912Z,7.90
2019-04-28T18:34:03.434Z,7.80
2019-04-28T18:36:34.715Z,7.70
2019-04-28T18:39:08.157Z,7.50
2019-04-28T18:41:41.345Z,7.40
2019-04-28T18:44:14.247Z,7.30
2019-04-28T18:46:43.918Z,7.20
2019-04-28T18:49:13.521Z,7.10
2019-04-28T18:51:43.221Z,7.10
2019-04-28T18:54:12.796Z,7.10
2019-04-28T18:56:42.472Z,7.00
2019-04-28T18:59:12.229Z,7.00
2019-04-28T19:01:43.500Z,6.90
2019-04-28T19:04:13.039Z,6.90
2019-04-28T19:06:42.712Z,6.90
2019-04-28T19:09:14.065Z,6.80
2019-04-28T19:11:45.861Z,6.80
2019-04-28T19:14:20.094Z,6.70
2019-04-28T19:16:51.382Z,6.70
2019-04-28T19:19:22.697Z,6.70
2019-04-28T19:21:53.987Z,6.70
2019-04-28T19:24:24.805Z,6.70
2019-04-28T19:26:54.790Z,6.70
2019-04-28T19:29:24.450Z,6.70
2019-04-28T19:31:54.057Z,6.60
2019-04-28T19:34:23.743Z,6.70
2019-04-28T19:36:53.839Z,6.60
2019-04-28T19:39:23.419Z,6.60
2019-04-28T19:41:53.066Z,6.60
2019-04-28T19:44:22.668Z,6.60
2019-04-28T19:46:52.339Z,6.60
2019-04-28T19:49:21.914Z,6.50
2019-04-28T19:51:51.503Z,6.60
2019-04-28T19:54:22.758Z,6.50
2019-04-28T19:56:54.030Z,6.50
2019-04-28T19:59:25.244Z,6.50
2019-04-28T20:01:54.929Z,6.50
2019-04-28T20:04:24.539Z,6.50
2019-04-28T20:06:54.157Z,6.40
2019-04-28T20:09:23.878Z,6.40
2019-04-28T20:11:53.587Z,6.40
2019-04-28T20:14:23.268Z,6.40
2019-04-28T20:16:52.900Z,6.40
2019-04-28T20:19:42.494Z,6.30
2019-04-28T20:22:12.018Z,6.40
2019-04-28T20:24:47.343Z,6.30
2019-04-28T20:27:12.910Z,6.30
2019-04-28T20:29:42.758Z,6.30
2019-04-28T20:32:13.606Z,6.30
2019-04-28T20:34:43.374Z,6.30
2019-04-28T20:37:14.578Z,6.30
2019-04-28T20:39:47.201Z,6.30
2019-04-28T20:42:21.261Z,6.30
2019-04-28T20:44:52.139Z,6.30
2019-04-28T20:47:21.730Z,6.20
2019-04-28T20:49:51.502Z,6.20
2019-04-28T20:52:21.037Z,6.10
2019-04-28T20:54:50.770Z,6.10
2019-04-28T20:57:20.316Z,6.10
2019-04-28T20:59:50.579Z,6.10
2019-04-28T21:02:20.227Z,6.10
2019-04-28T21:04:49.854Z,6.10
2019-04-28T21:07:19.637Z,6.00
2019-04-28T21:09:50.499Z,6.00
2019-04-28T21:12:20.206Z,6.00
2019-04-28T21:14:49.826Z,6.00
2019-04-28T21:17:20.903Z,6.00
2019-04-28T21:19:50.585Z,5.90
2019-04-28T21:22:20.125Z,6.00
2019-04-28T21:24:52.117Z,5.90
2019-04-28T21:27:24.376Z,5.90
2019-04-28T21:29:59.008Z,5.90
2019-04-28T21:32:29.955Z,5.90
2019-04-28T21:34:59.647Z,5.80
2019-04-28T21:37:29.211Z,5.80
2019-04-28T21:39:58.887Z,5.80
2019-04-28T21:42:30.131Z,5.80
2019-04-28T21:45:01.426Z,5.80
2019-04-28T21:47:32.678Z,5.70
2019-04-28T21:50:02.378Z,5.70
2019-04-28T21:52:31.989Z,5.70
2019-04-28T21:55:01.579Z,5.70
2019-04-28T21:57:31.243Z,5.70
2019-04-28T22:00:00.813Z,5.70
2019-04-28T22:02:30.406Z,5.70
2019-04-28T22:04:59.997Z,5.60
2019-04-28T22:07:29.643Z,5.60
2019-04-28T22:09:59.244Z,5.70
2019-04-28T22:12:28.953Z,5.60
2019-04-28T22:14:58.553Z,5.60
2019-04-28T22:17:28.139Z,5.60
2019-04-28T22:19:57.755Z,5.60
2019-04-28T22:22:27.424Z,5.60
2019-04-28T22:24:58.676Z,5.60
2019-04-28T22:27:29.929Z,5.60
2019-04-28T22:29:59.502Z,5.60
2019-04-28T22:32:29.152Z,5.50
2019-04-28T22:34:58.785Z,5.50
2019-04-28T22:37:28.466Z,5.50
2019-04-28T22:39:58.120Z,5.50
2019-04-28T22:42:27.778Z,5.40
2019-04-28T22:44:57.413Z,5.40
2019-04-28T22:47:27.119Z,5.40
2019-04-28T22:49:56.781Z,5.40
2019-04-28T22:52:26.434Z,5.40
2019-04-28T22:54:56.414Z,5.40
2019-04-28T22:57:27.651Z,5.40
2019-04-28T22:59:58.833Z,5.40
2019-04-28T23:02:30.152Z,5.40
2019-04-28T23:05:01.386Z,5.40
2019-04-28T23:07:31.034Z,5.40
2019-04-28T23:10:00.784Z,5.30
2019-04-28T23:12:32.037Z,5.40
2019-04-28T23:15:01.659Z,5.40
2019-04-28T23:17:32.786Z,5.30
2019-04-28T23:20:02.396Z,5.30
2019-04-28T23:22:46.260Z,5.30
2019-04-28T23:25:07.027Z,5.30
2019-04-28T23:27:35.835Z,5.30
2019-04-28T23:30:07.626Z,5.30
2019-04-28T23:32:36.494Z,5.20
2019-04-28T23:35:06.910Z,5.20
2019-04-28T23:37:36.531Z,5.20
2019-04-28T23:40:09.250Z,5.20
2019-04-28T23:42:40.428Z,5.20
2019-04-28T23:45:12.314Z,5.10
2019-04-28T23:47:42.053Z,5.10
2019-04-28T23:50:13.562Z,5.10
2019-04-28T23:52:44.853Z,5.10
2019-04-28T23:55:14.914Z,5.10
2019-04-28T23:57:44.537Z,5.10
